• Join FlightAware (Why Join?)
  • Login
  • US Flag 
02:25PM EDT


 

Airport Tracker/Info


-or-


 

Live Flight TrackerFlight Track Log ✈ SWA1323 ✈ 27-Jul-2013 ✈ KRNO - KLAX

Flight Track Log - Related Links

Times and Time Zones

All times are in EDT time to prevent confusion due to time zone crossing. See the SWA1323 flight status page for this flight to view local times or setup timezone preferences in your user account.

Time Position Orientation Groundspeed Altitude Reporting Facility
EDT Latitude Longitude Course Direction KTS MPH feet Rate Location/Type
09:51PM 39.4500 -119.7667 182° South 200 230 7,000  Level Northern Cal TRACON
09:53PM 39.3386 -119.7708 182° South 249 287 12,000 2,640 Climbing Oakland Center
09:54PM 39.2453 -119.7781 183° South 317 365 14,300 2,760 Climbing Oakland Center
09:55PM 39.1353 -119.7722 178° South 386 444 17,700 3,060 Climbing Oakland Center
09:56PM 39.0239 -119.7656 177° South 399 459 20,600 2,580 Climbing Oakland Center
09:57PM 38.9036 -119.7586 177° South 425 489 23,000 2,340 Climbing Oakland Center
09:58PM 38.7806 -119.7522 178° South 440 506 25,400 2,520 Climbing Oakland Center
09:59PM 38.6544 -119.7456 178° South 450 518 28,100 2,940 Climbing Oakland Center
10:00PM 38.5097 -119.7389 178° South 441 507 31,400 2,700 Climbing Oakland Center
10:01PM 38.4053 -119.7342 178° South 435 501 33,700 1,740 Climbing Oakland Center
10:02PM 38.2894 -119.7278 178° South 422 486 35,000 600 Climbing Oakland Center
10:03PM 38.1758 -119.7142 175° South 413 475 35,000 420 Level Oakland Center
10:04PM 38.0692 -119.6625 159° South 410 472 35,900 1,440 Climbing Oakland Center
10:05PM 37.9597 -119.6125 160° South 415 478 38,000 1,860 Climbing Oakland Center
10:06PM 37.8242 -119.6078 178° South 404 465 39,800 1,380 Climbing Oakland Center
10:07PM 37.7136 -119.6083 180° South 398 458 40,900 540 Climbing Oakland Center
10:08PM 37.5992 -119.6081 180° South 407 468 41,000  Climbing Oakland Center
10:09PM 37.4819 -119.6097 181° South 418 481 40,900  Descending Oakland Center
10:10PM 37.3656 -119.6086 180° South 418 481 41,000 -360 Climbing Oakland Center
10:11PM 37.2622 -119.6100 181° South 418 481 40,200 -840 Descending Oakland Center
10:12PM 37.1447 -119.6100 180° South 421 484 39,300 -600 Descending Oakland Center
10:13PM 37.0047 -119.6106 180° South 419 482 39,000 -180 Descending Oakland Center
10:14PM 36.8886 -119.6108 180° South 418 481 39,000  Level Oakland Center
10:15PM 36.7714 -119.6122 181° South 421 484 39,000  Level Oakland Center
10:16PM 36.6542 -119.6139 181° South 420 483 39,000  Level Oakland Center
10:17PM 36.5375 -119.6144 180° South 419 482 39,000  Level Oakland Center
10:18PM 36.4197 -119.6139 180° South 421 484 39,000  Level Oakland Center
10:19PM 36.3028 -119.6144 180° South 419 482 39,000  Level Oakland Center
10:20PM 36.1858 -119.6147 180° South 418 481 39,000  Level Oakland Center
10:21PM 36.0678 -119.6142 180° South 422 486 39,000  Level Oakland Center
10:22PM 35.9506 -119.6147 180° South 420 483 39,000  Level Oakland Center
10:23PM 35.8342 -119.6206 182° South 416 479 39,000  Level Oakland Center
10:24PM 35.7161 -119.6061 174° South 423 487 39,000  Level Oakland Center
10:25PM 35.6228 -119.5869 171° South 424 488 39,000  Level Los Angeles Center
10:26PM 35.4825 -119.5567 170° South 423 487 39,000  Level Los Angeles Center
10:27PM 35.3656 -119.5317 170° South 424 488 39,000  Level Los Angeles Center
10:28PM 35.2528 -119.4878 162° South 424 488 39,000  Level Los Angeles Center
10:29PM 35.1442 -119.4222 154° Southeast 432 497 39,000 -960 Level Los Angeles Center
10:30PM 35.0136 -119.3461 154° Southeast 432 497 36,900 -2,820 Descending Los Angeles Center
10:31PM 34.9086 -119.2822 153° Southeast 425 489 33,300 -3,660 Descending Los Angeles Center
10:32PM 34.7997 -119.2161 153° Southeast 435 501 29,500 -3,660 Descending Los Angeles Center
10:33PM 34.6683 -119.1397 154° Southeast 434 499 25,900 -3,180 Descending Los Angeles Center
10:34PM 34.5717 -119.0625 147° Southeast 440 506 23,100 -2,700 Descending Los Angeles Center
10:35PM 34.4597 -119.0361 169° South 413 475 20,400 -2,460 Descending Los Angeles Center
10:36PM 34.3517 -119.0303 177° South 392 451 18,100 -2,520 Descending Los Angeles Center
10:37PM 34.2447 -119.0258 178° South 391 450 15,300 -1,560 Descending Los Angeles Center
10:38PM 34.1436 -119.0092 172° South 379 436 15,000 -180 Descending Los Angeles Center
10:39PM 34.0956 -118.9061 119° Southeast 353 406 15,000 -720 Level Los Angeles Center
10:41PM 34.0492 -118.7906 116° Southeast 317 365 13,400 -1,380 Descending Los Angeles Center
10:42PM 34.0317 -118.6694 100° East 299 344 12,000 -1,320 Descending Los Angeles Center
10:43PM 34.0228 -118.5831 97° East 257 296 10,800 -1,440 Descending Los Angeles Center
10:44PM 34.0142 -118.4981 97° East 254 292 9,100 -1,740 Descending Los Angeles Center
10:45PM 34.0136 -118.4192 90° East 239 275 7,300 -1,860 Descending Los Angeles Center
10:46PM 34.0236 -118.3386 81° East 240 276 5,400 -1,860 Descending Los Angeles Center
10:47PM 34.0311 -118.2575 84° East 241 277 3,600 -1,380 Descending Los Angeles Center
10:48PM 34.0364 -118.1822 85° East 234 269 2,600 -540 Descending Los Angeles Center
10:49PM 34.0025 -118.1442 137° Southeast 239 275 2,600  Level Los Angeles Center
10:50PM 33.9758 -118.1997 240° Southwest 209 241 2,600 -180 Level Los Angeles Center
10:51PM 33.9653 -118.2669 259° West 185 213 2,300 -540 Descending Los Angeles Center
10:52PM 33.9611 -118.3172 264° West 168 193 1,500 -720 Descending Los Angeles Center
10:53PM 33.9572 -118.3603 264° West 148 170 900 -660 Descending Los Angeles Center
10:54PM 33.9528 -118.3992 262° West 130 150 200 -720 Descending Los Angeles Center
10:56PM 33.9333 -118.4000 228° Southwest  Level FlightAware Approximate